Time;durP1;ratioP1;P1;durP2;ratioP2;P2;SDS_P1;SDS_P2;PMS_P1;PMS_P2;Temp;Humidity;BMP_temperature;BMP_pressure;BME280_temperature;BME280_humidity;BME280_pressure;Samples;Min_cycle;Max_cycle;Signal;HPM_P1;HPM_P2
2021/01/13 00:01:02;;;;;;;114.25;36.38;;;0.40;2201.60;;;;;;6099558;23;19995;-67
2021/01/13 00:03:28;;;;;;;124.20;38.25;;;0.60;2201.60;;;;;;6099243;23;19990;-66
2021/01/13 00:05:54;;;;;;;116.35;39.47;;;0.60;2201.60;;;;;;6099759;23;20069;-66
2021/01/13 00:08:20;;;;;;;122.95;39.42;;;0.60;2201.60;;;;;;6099928;23;19998;-66
2021/01/13 00:10:45;;;;;;;102.57;35.17;;;0.70;2201.60;;;;;;6099607;23;19991;-67
2021/01/13 00:13:11;;;;;;;97.18;34.33;;;0.70;2201.60;;;;;;6100278;23;20302;-66
2021/01/13 00:15:37;;;;;;;112.30;39.33;;;0.70;2201.60;;;;;;6099823;23;20037;-66
2021/01/13 00:18:03;;;;;;;104.80;35.33;;;0.80;2201.60;;;;;;6099869;23;19999;-66
2021/01/13 00:20:29;;;;;;;112.07;37.97;;;0.90;2201.60;;;;;;6099761;23;19994;-67
2021/01/13 00:22:54;;;;;;;94.95;37.20;;;25.60;2201.60;;;;;;6099404;23;20005;-66
2021/01/13 00:25:20;;;;;;;95.57;35.40;;;25.70;2201.60;;;;;;6099648;23;20017;-67
2021/01/13 00:27:47;;;;;;;97.13;33.05;;;25.80;2201.60;;;;;;6099785;23;20002;-67
2021/01/13 00:30:14;;;;;;;86.70;30.65;;;25.60;2201.60;;;;;;6099766;23;20049;-66
2021/01/13 00:32:39;;;;;;;84.10;30.92;;;25.70;2201.60;;;;;;6099736;23;20368;-67
2021/01/13 00:35:07;;;;;;;85.35;29.80;;;25.90;2201.60;;;;;;6099575;23;19998;-66
2021/01/13 00:37:35;;;;;;;79.38;29.42;;;25.90;2201.60;;;;;;6099375;23;20007;-66
2021/01/13 00:40:02;;;;;;;78.75;30.02;;;25.90;2201.60;;;;;;6099024;23;19990;-66
2021/01/13 00:42:28;;;;;;;83.70;31.77;;;26.00;2201.60;;;;;;6099631;23;20069;-67
2021/01/13 00:44:54;;;;;;;101.68;38.95;;;25.60;2201.60;;;;;;6099601;23;20299;-67
2021/01/13 00:47:20;;;;;;;93.55;35.22;;;25.60;2201.60;;;;;;6099185;23;19998;-67
2021/01/13 00:49:45;;;;;;;84.25;33.33;;;0.80;2201.60;;;;;;6099095;23;20396;-66
2021/01/13 00:52:11;;;;;;;84.72;35.40;;;0.70;2201.60;;;;;;6099443;23;19999;-66
2021/01/13 00:54:37;;;;;;;99.45;38.42;;;0.90;2201.60;;;;;;6099830;23;19994;-66
2021/01/13 00:57:05;;;;;;;85.22;34.72;;;0.80;2201.60;;;;;;6099104;23;20052;-67
2021/01/13 00:59:30;;;;;;;83.55;32.70;;;0.90;2201.60;;;;;;6099453;23;20006;-67
2021/01/13 01:01:56;;;;;;;82.93;35.50;;;25.60;2201.60;;;;;;6099434;23;20057;-67
2021/01/13 01:04:22;;;;;;;83.45;30.80;;;25.90;2201.60;;;;;;6099028;23;19994;-67
2021/01/13 01:06:49;;;;;;;68.78;28.42;;;25.90;2201.60;;;;;;6099404;23;19994;-67
2021/01/13 01:09:15;;;;;;;81.85;29.73;;;25.90;2201.60;;;;;;6099407;23;20398;-67
2021/01/13 01:11:41;;;;;;;78.75;30.63;;;25.90;2201.60;;;;;;6098758;23;20001;-67
2021/01/13 01:14:09;;;;;;;80.30;28.30;;;25.90;2201.60;;;;;;6098941;23;20314;-66
2021/01/13 01:16:38;;;;;;;74.35;28.27;;;25.90;2201.60;;;;;;6099301;23;19994;-67
2021/01/13 01:19:08;;;;;;;75.70;29.27;;;25.80;2201.60;;;;;;6099016;23;20358;-65
2021/01/13 01:21:38;;;;;;;75.57;28.10;;;25.80;2201.60;;;;;;6099383;23;20001;-66
2021/01/13 01:24:05;;;;;;;88.65;29.55;;;25.80;2201.60;;;;;;6099086;23;19994;-67
2021/01/13 01:26:30;;;;;;;71.28;27.55;;;26.00;2201.60;;;;;;6097684;23;20382;-67
2021/01/13 01:28:56;;;;;;;80.80;30.08;;;26.00;2201.60;;;;;;6096153;23;19999;-66
2021/01/13 01:31:22;;;;;;;74.72;28.60;;;25.80;2201.60;;;;;;6096480;23;20020;-66
2021/01/13 01:33:48;;;;;;;80.22;30.05;;;26.00;2201.60;;;;;;6096245;23;19998;-67
2021/01/13 01:36:17;;;;;;;88.18;33.65;;;25.90;2201.60;;;;;;6096458;23;20394;-66
2021/01/13 01:38:42;;;;;;;;;;;25.80;2201.60;;;;;;6096959;23;20002;-66
2021/01/13 01:41:09;;;;;;;81.25;33.22;;;25.80;2201.60;;;;;;6095988;23;19912;-66
2021/01/13 01:43:36;;;;;;;90.20;33.75;;;25.80;2201.60;;;;;;6096476;23;20331;-67
2021/01/13 01:46:03;;;;;;;98.45;34.95;;;25.70;2201.60;;;;;;6096103;23;19998;-68
2021/01/13 01:48:41;;;;;;;92.63;34.95;;;25.90;2201.60;;;;;;6096342;23;20398;-67
2021/01/13 01:51:07;;;;;;;93.20;32.65;;;25.80;2201.60;;;;;;6095608;23;20402;-67
2021/01/13 01:54:24;;;;;;;89.78;33.95;;;25.90;2201.60;;;;;;6096047;23;20002;-66
2021/01/13 01:56:53;;;;;;;99.88;33.38;;;26.00;2201.60;;;;;;5951729;24;20424;-67
2021/01/13 01:59:42;;;;;;;89.50;34.63;;;26.10;2201.60;;;;;;5951456;24;20415;-66
2021/01/13 02:02:09;;;;;;;85.55;32.70;;;26.10;2201.60;;;;;;5951448;24;20001;-67
2021/01/13 02:07:30;;;;;;;82.72;31.77;;;25.90;2201.60;;;;;;5951163;24;20462;-67
2021/01/13 02:09:57;;;;;;;82.40;30.67;;;25.90;2201.60;;;;;;5951494;24;20005;-67
2021/01/13 02:12:29;;;;;;;113.90;39.05;;;26.00;2201.60;;;;;;5951766;24;20405;-67
2021/01/13 02:14:55;;;;;;;102.28;35.58;;;26.00;2201.60;;;;;;5951184;24;20024;-67
2021/01/13 02:17:33;;;;;;;104.40;38.25;;;25.90;2201.60;;;;;;5951741;24;20005;-66
2021/01/13 02:20:07;;;;;;;102.10;38.78;;;25.80;2201.60;;;;;;5951767;24;20075;-67
2021/01/13 02:22:38;;;;;;;99.38;36.97;;;25.70;2201.60;;;;;;5951237;24;20005;-67
2021/01/13 02:25:13;;;;;;;93.40;36.85;;;25.70;2201.60;;;;;;5951339;24;20133;-66
2021/01/13 02:28:28;;;;;;;107.22;38.80;;;25.80;2201.60;;;;;;5951321;24;20009;-67
2021/01/13 02:31:03;;;;;;;100.72;35.10;;;25.90;2201.60;;;;;;5945190;23;20010;-68
2021/01/13 02:34:08;;;;;;;100.45;35.92;;;26.00;2201.60;;;;;;6008947;23;20003;-67
2021/01/13 02:36:34;;;;;;;88.63;33.63;;;26.10;2201.60;;;;;;5897998;24;20016;-66
2021/01/13 02:39:07;;;;;;;98.97;35.08;;;26.00;2201.60;;;;;;5898168;24;20451;-67
2021/01/13 02:41:42;;;;;;;101.35;37.55;;;26.10;2201.60;;;;;;5898198;24;20048;-67
2021/01/13 02:44:11;;;;;;;118.38;38.53;;;26.00;2201.60;;;;;;5897665;24;20413;-67
2021/01/13 02:46:55;;;;;;;103.55;33.63;;;25.90;2201.60;;;;;;5898217;24;20070;-66
2021/01/13 02:49:30;;;;;;;106.55;35.13;;;25.90;2201.60;;;;;;5898155;24;20414;-67
2021/01/13 02:51:58;;;;;;;97.30;34.70;;;25.80;2201.60;;;;;;5897951;24;20001;-67
2021/01/13 02:54:34;;;;;;;99.88;35.58;;;25.80;2201.60;;;;;;5898012;24;20005;-67
2021/01/13 02:57:17;;;;;;;111.90;37.47;;;25.80;2201.60;;;;;;5897562;24;20670;-67
2021/01/13 02:59:49;;;;;;;102.93;36.15;;;25.90;2201.60;;;;;;5898103;24;20096;-67
2021/01/13 03:02:16;;;;;;;105.43;35.03;;;25.80;2201.60;;;;;;5898211;24;20006;-66
2021/01/13 03:04:42;;;;;;;104.07;34.60;;;25.80;2201.60;;;;;;5897255;24;20058;-67
2021/01/13 03:07:13;;;;;;;111.90;35.58;;;25.80;2201.60;;;;;;5984147;23;20002;-67
2021/01/13 03:09:49;;;;;;;101.15;34.70;;;25.70;2201.60;;;;;;6097201;23;20053;-67
2021/01/13 03:12:27;;;;;;;105.32;34.05;;;25.80;2201.60;;;;;;6097954;23;20073;-66
2021/01/13 03:14:58;;;;;;;113.80;36.97;;;25.60;2201.60;;;;;;6098162;23;20413;-68
2021/01/13 03:17:29;;;;;;;101.22;34.22;;;25.60;2201.60;;;;;;6097984;23;20319;-67
2021/01/13 03:20:14;;;;;;;117.07;38.70;;;25.60;2201.60;;;;;;6097774;23;19999;-66
2021/01/13 03:23:17;;;;;;;122.65;42.70;;;0.80;2201.60;;;;;;6098046;23;20082;-67
2021/01/13 03:25:53;;;;;;;131.88;40.50;;;0.90;2201.60;;;;;;6072336;23;20334;-67
2021/01/13 03:28:23;;;;;;;112.47;38.22;;;25.60;2201.60;;;;;;6097577;23;19999;-67
2021/01/13 03:30:51;;;;;;;99.55;35.95;;;25.60;2201.60;;;;;;6097630;23;19995;-67
2021/01/13 03:33:20;;;;;;;114.15;36.53;;;0.90;2201.60;;;;;;6097622;23;20469;-66
2021/01/13 03:35:57;;;;;;;114.60;36.50;;;0.90;2201.60;;;;;;6097157;23;20362;-66
2021/01/13 03:38:27;;;;;;;116.82;36.72;;;25.70;2201.60;;;;;;6097567;23;20001;-66
2021/01/13 03:41:03;;;;;;;113.47;37.70;;;25.80;2201.60;;;;;;6097595;23;20007;-66
2021/01/13 03:43:39;;;;;;;106.03;37.13;;;25.60;2201.60;;;;;;6097031;23;20343;-67
2021/01/13 03:46:09;;;;;;;100.38;34.17;;;25.60;2201.60;;;;;;6097031;23;20077;-67
2021/01/13 03:48:45;;;;;;;98.80;33.05;;;25.60;2201.60;;;;;;6097459;23;20005;-67
2021/01/13 03:51:33;;;;;;;90.90;32.60;;;0.90;2201.60;;;;;;6097333;23;19995;-67
2021/01/13 03:54:04;;;;;;;100.57;37.70;;;25.60;2201.60;;;;;;6096751;23;20394;-67
2021/01/13 03:56:56;;;;;;;115.60;38.92;;;0.90;2201.60;;;;;;6097222;23;20017;-67
2021/01/13 03:59:41;;;;;;;121.10;38.50;;;0.90;2201.60;;;;;;6096520;23;19999;-68
2021/01/13 04:02:09;;;;;;;109.40;37.40;;;25.60;2201.60;;;;;;6097131;23;19999;-67
2021/01/13 04:04:49;;;;;;;113.70;38.00;;;25.60;2201.60;;;;;;6096952;23;19994;-67
2021/01/13 04:07:16;;;;;;;119.53;40.72;;;0.80;2201.60;;;;;;6097348;23;19998;-67
2021/01/13 04:09:43;;;;;;;128.75;45.05;;;0.90;2201.60;;;;;;6097402;23;19994;-66
2021/01/13 04:12:14;;;;;;;127.15;44.85;;;25.60;2201.60;;;;;;6097353;23;20429;-68
2021/01/13 04:14:51;;;;;;;139.10;46.03;;;25.70;2201.60;;;;;;6097099;23;20130;-67
2021/01/13 04:17:18;;;;;;;137.88;46.92;;;25.70;2201.60;;;;;;6097302;23;20002;-67
2021/01/13 04:19:45;;;;;;;120.55;41.42;;;25.70;2201.60;;;;;;6097020;23;20005;-67
2021/01/13 04:22:13;;;;;;;130.43;39.65;;;25.70;2201.60;;;;;;6097029;23;20018;-67
2021/01/13 04:24:44;;;;;;;134.18;43.33;;;25.70;2201.60;;;;;;6096847;23;20021;-66
2021/01/13 04:27:12;;;;;;;125.22;40.80;;;25.70;2201.60;;;;;;6097022;23;20010;-67
2021/01/13 04:29:38;;;;;;;132.87;42.40;;;25.70;2201.60;;;;;;6097538;23;20013;-66
2021/01/13 04:32:05;;;;;;;115.05;40.15;;;0.90;2201.60;;;;;;6097836;23;20433;-67
2021/01/13 04:34:31;;;;;;;113.28;39.63;;;25.60;2201.60;;;;;;6096085;23;20381;-67
2021/01/13 04:36:57;;;;;;;120.38;38.95;;;25.60;2201.60;;;;;;6096698;23;19998;-66
2021/01/13 04:39:25;;;;;;;124.13;40.10;;;0.90;2201.60;;;;;;6095928;23;20387;-67
2021/01/13 04:42:03;;;;;;;101.28;35.97;;;0.80;2201.60;;;;;;6096729;23;19994;-66
2021/01/13 04:45:02;;;;;;;115.13;36.67;;;0.80;2201.60;;;;;;6097447;23;20005;-66
2021/01/13 04:47:46;;;;;;;169.90;53.95;;;0.90;2201.60;;;;;;6096439;23;20424;-67
2021/01/13 04:50:15;;;;;;;150.98;45.40;;;0.90;2201.60;;;;;;6096359;23;20509;-67
2021/01/13 04:52:42;;;;;;;146.65;43.70;;;0.90;2201.60;;;;;;6096373;23;19990;-66
2021/01/13 04:55:24;;;;;;;112.05;36.97;;;25.60;2201.60;;;;;;6096673;23;20001;-67
2021/01/13 04:58:13;;;;;;;127.78;38.22;;;25.60;2201.60;;;;;;6096954;23;20335;-67
2021/01/13 05:00:58;;;;;;;131.52;40.60;;;25.60;2201.60;;;;;;6096536;23;19999;-67
2021/01/13 05:03:38;;;;;;;129.02;40.67;;;25.70;2201.60;;;;;;6095732;23;19995;-67
2021/01/13 05:06:41;;;;;;;119.03;41.38;;;0.90;2201.60;;;;;;6096123;23;20013;-66
2021/01/13 05:09:11;;;;;;;120.88;38.78;;;0.90;2201.60;;;;;;6088230;23;20003;-66
2021/01/13 05:11:43;;;;;;;127.15;40.28;;;25.60;2201.60;;;;;;6096873;23;20005;-67
2021/01/13 05:14:11;;;;;;;109.95;35.35;;;0.90;2201.60;;;;;;6096896;23;20017;-67
2021/01/13 05:17:01;;;;;;;119.28;37.35;;;25.60;2201.60;;;;;;6096411;23;20098;-67
2021/01/13 05:19:30;;;;;;;113.93;38.30;;;25.70;2201.60;;;;;;6031584;23;20022;-65
2021/01/13 05:21:57;;;;;;;119.95;37.45;;;25.60;2201.60;;;;;;6097119;23;20398;-66
2021/01/13 05:24:29;;;;;;;121.75;38.97;;;25.70;2201.60;;;;;;6096199;23;20093;-67
2021/01/13 05:27:03;;;;;;;114.40;37.22;;;25.60;2201.60;;;;;;6096678;23;20148;-66
2021/01/13 05:29:36;;;;;;;134.52;42.40;;;25.70;2201.60;;;;;;6099327;23;19994;-66
2021/01/13 05:32:06;;;;;;;127.80;37.97;;;25.60;2201.60;;;;;;6098996;23;19994;-66
2021/01/13 05:34:33;;;;;;;119.57;39.38;;;25.60;2201.60;;;;;;6098565;23;19991;-66
2021/01/13 05:37:15;;;;;;;113.35;39.35;;;25.80;2201.60;;;;;;6098510;23;19998;-66
2021/01/13 05:39:42;;;;;;;136.93;41.65;;;25.70;2201.60;;;;;;6099479;23;20009;-67
2021/01/13 05:42:10;;;;;;;130.50;43.30;;;25.70;2201.60;;;;;;6099554;23;19991;-67
2021/01/13 05:44:36;;;;;;;152.60;45.88;;;0.90;2201.60;;;;;;6097904;23;19994;-67
2021/01/13 05:47:04;;;;;;;175.70;51.75;;;0.80;2201.60;;;;;;6099455;23;20390;-66
2021/01/13 05:49:31;;;;;;;156.70;47.72;;;25.60;2201.60;;;;;;6099144;23;20006;-67
2021/01/13 05:52:09;;;;;;;138.27;43.03;;;25.80;2201.60;;;;;;6099109;23;20146;-67
2021/01/13 05:54:37;;;;;;;160.00;61.30;;;25.70;2201.60;;;;;;6099165;23;20069;-66
2021/01/13 05:57:04;;;;;;;127.20;47.65;;;25.60;2201.60;;;;;;6099363;23;20374;-67
2021/01/13 05:59:31;;;;;;;93.63;35.92;;;25.60;2201.60;;;;;;6098736;23;20005;-66
2021/01/13 06:01:58;;;;;;;71.10;29.15;;;0.90;2201.60;;;;;;6098213;23;19995;-66
2021/01/13 06:04:25;;;;;;;73.38;29.75;;;25.60;2201.60;;;;;;6096911;23;20425;-67
2021/01/13 06:07:05;;;;;;;98.88;35.15;;;25.80;2201.60;;;;;;6097154;23;20402;-67
2021/01/13 06:09:39;;;;;;;229.27;78.72;;;25.80;2201.60;;;;;;6097568;23;20084;-66
2021/01/13 06:12:12;;;;;;;109.18;37.92;;;0.90;2201.60;;;;;;6098262;23;20069;-67
2021/01/13 06:14:38;;;;;;;76.75;28.92;;;25.60;2201.60;;;;;;6098609;23;19999;-66
2021/01/13 06:17:05;;;;;;;84.38;31.98;;;25.60;2201.60;;;;;;6098957;23;20005;-67
2021/01/13 06:19:32;;;;;;;79.75;29.25;;;25.60;2201.60;;;;;;6098699;23;19998;-66
2021/01/13 06:22:09;;;;;;;78.75;32.65;;;0.90;2201.60;;;;;;6099365;23;20013;-66
2021/01/13 06:24:36;;;;;;;73.03;28.70;;;25.60;2201.60;;;;;;6098841;23;20402;-67
2021/01/13 06:27:22;;;;;;;72.55;29.33;;;0.90;2201.60;;;;;;6098669;23;20373;-66
2021/01/13 06:29:49;;;;;;;65.32;26.27;;;0.80;2201.60;;;;;;6098697;23;20348;-67
2021/01/13 06:32:31;;;;;;;75.53;29.02;;;0.80;2201.60;;;;;;6098537;23;20003;-66
2021/01/13 06:35:03;;;;;;;79.90;30.60;;;0.90;2201.60;;;;;;6099006;23;19994;-67
2021/01/13 06:37:34;;;;;;;71.82;30.52;;;0.90;2201.60;;;;;;6098845;23;20421;-66
2021/01/13 06:40:11;;;;;;;76.40;30.20;;;0.90;2201.60;;;;;;6098272;23;20016;-67
2021/01/13 06:42:37;;;;;;;84.40;32.28;;;0.90;2201.60;;;;;;6099358;23;19995;-67
2021/01/13 06:45:03;;;;;;;87.88;36.35;;;25.60;2201.60;;;;;;6098584;23;20060;-67
2021/01/13 06:47:29;;;;;;;78.53;32.00;;;25.60;2201.60;;;;;;6098857;23;20002;-66
2021/01/13 06:49:55;;;;;;;86.68;37.47;;;25.60;2201.60;;;;;;6099164;23;20050;-68
2021/01/13 06:52:31;;;;;;;87.53;39.70;;;25.60;2201.60;;;;;;6098879;23;19994;-66
2021/01/13 06:54:59;;;;;;;90.72;38.40;;;25.60;2201.60;;;;;;6098926;23;20017;-67
2021/01/13 06:57:30;;;;;;;91.93;36.70;;;25.60;2201.60;;;;;;6098115;23;20366;-67
2021/01/13 06:59:59;;;;;;;74.75;32.15;;;25.70;2201.60;;;;;;6098808;23;20018;-68
2021/01/13 07:02:35;;;;;;;81.72;34.97;;;25.90;2201.60;;;;;;6098547;23;20298;-68
2021/01/13 07:05:01;;;;;;;85.38;36.03;;;26.10;2201.60;;;;;;6099239;23;20112;-66
2021/01/13 07:07:29;;;;;;;87.10;38.83;;;26.10;2201.60;;;;;;6098865;23;20018;-66
2021/01/13 07:09:55;;;;;;;106.38;46.85;;;26.10;2201.60;;;;;;6098474;23;20022;-67
2021/01/13 07:12:24;;;;;;;105.95;44.00;;;26.30;2201.60;;;;;;6097913;23;20026;-67
2021/01/13 07:14:51;;;;;;;;;;;26.30;2201.60;;;;;;6097745;23;20018;-67
2021/01/13 07:17:19;;;;;;;95.28;36.67;;;26.40;2201.60;;;;;;6099980;23;19905;-65
2021/01/13 07:19:50;;;;;;;78.83;34.77;;;26.30;2201.60;;;;;;6100449;23;20009;-66
2021/01/13 07:22:18;;;;;;;77.90;32.15;;;26.50;2201.60;;;;;;6100496;23;20053;-67
2021/01/13 07:24:44;;;;;;;76.28;33.40;;;51.20;2227.20;;;;;;6099544;23;20303;-66
2021/01/13 07:27:12;;;;;;;81.85;36.58;;;26.50;2201.60;;;;;;6100128;23;20002;-66
2021/01/13 07:29:39;;;;;;;92.05;38.13;;;26.40;2201.60;;;;;;6100433;23;20009;-67
2021/01/13 07:32:06;;;;;;;78.13;33.88;;;26.30;2201.60;;;;;;6099308;23;20073;-66
2021/01/13 07:34:35;;;;;;;80.30;33.58;;;26.30;2201.60;;;;;;6100668;23;19994;-65
2021/01/13 07:37:08;;;;;;;82.53;34.92;;;26.40;2201.60;;;;;;6099575;23;20013;-66
2021/01/13 07:40:02;;;;;;;77.63;33.83;;;51.20;2227.20;;;;;;6100608;23;20354;-66
2021/01/13 07:42:39;;;;;;;78.70;34.85;;;51.30;2227.20;;;;;;6083721;23;19994;-66
2021/01/13 07:45:13;;;;;;;92.45;37.28;;;51.30;2227.20;;;;;;6099917;23;20000;-66
2021/01/13 07:48:13;;;;;;;81.85;34.42;;;51.30;2227.20;;;;;;6100144;23;19994;-66
2021/01/13 07:50:41;;;;;;;84.57;40.13;;;51.50;2227.20;;;;;;6099479;23;20057;-67
2021/01/13 07:53:23;;;;;;;110.07;45.13;;;51.40;2227.20;;;;;;6099896;23;20049;-65
2021/01/13 07:56:02;;;;;;;92.57;38.58;;;51.50;2227.20;;;;;;6100459;23;20145;-67
2021/01/13 07:58:35;;;;;;;96.13;40.83;;;51.60;2227.20;;;;;;6099863;23;20046;-68
2021/01/13 08:01:20;;;;;;;99.90;45.03;;;51.60;2227.20;;;;;;6100440;23;19995;-66
2021/01/13 08:04:30;;;;;;;99.50;42.53;;;51.90;2227.20;;;;;;6099732;23;20073;-67
2021/01/13 08:06:58;;;;;;;93.78;42.75;;;76.90;2227.20;;;;;;6099385;23;19994;-66
2021/01/13 08:09:24;;;;;;;94.57;44.63;;;77.00;2227.20;;;;;;6097950;23;19998;-66
2021/01/13 08:12:09;;;;;;;87.40;40.65;;;76.90;2227.20;;;;;;6098316;23;20005;-67
2021/01/13 08:15:13;;;;;;;98.72;43.22;;;76.90;2227.20;;;;;;6098941;23;19998;-66
2021/01/13 08:18:18;;;;;;;95.85;39.65;;;77.10;2227.20;;;;;;6099108;23;20566;-67
2021/01/13 08:21:01;;;;;;;85.78;37.85;;;77.40;2227.20;;;;;;6099655;23;20002;-66
2021/01/13 08:23:40;;;;;;;91.72;40.13;;;77.60;2227.20;;;;;;6100208;23;19994;-66
2021/01/13 08:26:06;;;;;;;92.30;39.15;;;102.70;2201.60;;;;;;6099513;23;20014;-66
2021/01/13 08:28:37;;;;;;;81.22;35.25;;;103.00;2150.40;;;;;;6099092;23;19999;-65
2021/01/13 08:31:05;;;;;;;85.38;34.30;;;102.50;2176.00;;;;;;6093471;23;20088;-67
2021/01/13 08:33:34;;;;;;;80.95;35.60;;;77.70;2201.60;;;;;;6097800;23;20022;-67
2021/01/13 08:36:13;;;;;;;81.80;34.50;;;77.50;2227.20;;;;;;6098330;23;20002;-68
2021/01/13 08:38:57;;;;;;;;;;;77.40;2227.20;;;;;;6099577;23;20406;-67
2021/01/13 08:41:24;;;;;;;91.53;34.05;;;77.30;2227.20;;;;;;6098563;23;19933;-68
2021/01/13 08:44:09;;;;;;;84.50;36.95;;;77.10;2227.20;;;;;;6099764;23;20002;-67
2021/01/13 08:46:39;;;;;;;79.38;34.65;;;77.20;2227.20;;;;;;6099137;23;20006;-67
2021/01/13 08:49:12;;;;;;;83.03;35.25;;;77.30;2227.20;;;;;;6099308;23;20002;-68
2021/01/13 08:51:38;;;;;;;83.65;34.60;;;77.30;2227.20;;;;;;6072033;23;20082;-67
2021/01/13 08:54:21;;;;;;;84.78;36.15;;;77.40;2227.20;;;;;;6098570;23;20466;-67
2021/01/13 08:56:59;;;;;;;79.85;33.53;;;77.20;2227.20;;;;;;6098829;23;19998;-67
2021/01/13 08:59:39;;;;;;;92.90;36.38;;;77.00;2227.20;;;;;;6097905;23;19998;-67
2021/01/13 09:02:11;;;;;;;87.22;36.83;;;77.00;2227.20;;;;;;6096942;23;20017;-67
2021/01/13 09:04:58;;;;;;;90.53;36.70;;;76.90;2227.20;;;;;;6097464;23;19998;-67
2021/01/13 09:07:32;;;;;;;94.22;38.65;;;77.10;2227.20;;;;;;6097758;23;19999;-67
2021/01/13 09:10:11;;;;;;;92.72;40.63;;;77.20;2227.20;;;;;;6098312;23;20420;-68
2021/01/13 09:12:45;;;;;;;98.45;40.22;;;77.70;2227.20;;;;;;6097709;23;20350;-66
2021/01/13 09:15:19;;;;;;;93.97;39.88;;;102.60;2227.20;;;;;;6097006;23;20053;-67
2021/01/13 09:17:57;;;;;;;86.70;38.28;;;103.00;2150.40;;;;;;6098870;23;20021;-67
2021/01/13 09:20:26;;;;;;;100.80;40.88;;;102.90;2150.40;;;;;;6098971;23;20074;-67
2021/01/13 09:23:03;;;;;;;92.90;41.92;;;103.10;2124.80;;;;;;6098010;23;20002;-68
2021/01/13 09:25:32;;;;;;;88.88;41.42;;;102.90;2176.00;;;;;;6099289;23;20403;-68
2021/01/13 09:28:03;;;;;;;83.13;37.13;;;128.00;2150.40;;;;;;6098781;23;19999;-67
2021/01/13 09:30:38;;;;;;;93.38;41.60;;;102.90;2150.40;;;;;;6099229;23;20322;-67
2021/01/13 09:33:09;;;;;;;88.10;38.80;;;103.10;2150.40;;;;;;6098720;23;20432;-66
2021/01/13 09:35:39;;;;;;;96.00;40.05;;;103.30;2124.80;;;;;;6096893;23;20002;-66
2021/01/13 09:38:10;;;;;;;87.22;37.97;;;103.30;2099.20;;;;;;6098869;23;20073;-66
2021/01/13 09:41:01;;;;;;;86.40;37.58;;;103.10;2099.20;;;;;;6098861;23;20001;-66
2021/01/13 09:43:44;;;;;;;87.22;40.65;;;102.80;2150.40;;;;;;6098232;23;19994;-68
2021/01/13 09:46:22;;;;;;;97.43;43.50;;;102.70;2150.40;;;;;;6098773;23;20032;-68
2021/01/13 09:49:04;;;;;;;111.18;46.55;;;102.60;2201.60;;;;;;6098403;23;19994;-68
2021/01/13 09:51:30;;;;;;;94.70;42.00;;;102.90;2201.60;;;;;;6098953;23;20128;-69
2021/01/13 09:54:03;;;;;;;103.78;46.42;;;103.10;2201.60;;;;;;6099232;23;20338;-66
2021/01/13 09:56:30;;;;;;;87.20;37.80;;;103.20;2176.00;;;;;;6097696;23;20005;-67
2021/01/13 09:58:57;;;;;;;90.75;41.22;;;102.80;2176.00;;;;;;6099014;23;20034;-68
2021/01/13 10:01:29;;;;;;;103.28;45.40;;;102.50;2227.20;;;;;;6098484;23;20306;-69
2021/01/13 10:03:56;;;;;;;99.88;45.20;;;102.70;2201.60;;;;;;6098224;23;19998;-68
2021/01/13 10:06:27;;;;;;;116.70;56.28;;;102.60;2227.20;;;;;;6098509;23;20002;-68
2021/01/13 10:08:54;;;;;;;128.50;56.40;;;102.50;2227.20;;;;;;6098811;23;19995;-68
2021/01/13 10:11:23;;;;;;;161.38;76.20;;;102.80;2201.60;;;;;;6098781;23;20302;-67
2021/01/13 10:13:59;;;;;;;89.00;40.72;;;102.90;2227.20;;;;;;6099186;23;20086;-67
2021/01/13 10:16:26;;;;;;;83.50;38.17;;;102.80;2201.60;;;;;;6099061;23;20005;-68
2021/01/13 10:19:01;;;;;;;85.53;38.47;;;102.60;2227.20;;;;;;6098886;23;20010;-66
2021/01/13 10:21:34;;;;;;;299.33;158.32;;;102.60;2201.60;;;;;;6098717;23;19995;-67
2021/01/13 10:24:07;;;;;;;92.97;43.28;;;102.80;2176.00;;;;;;6098682;23;20006;-68
2021/01/13 10:26:41;;;;;;;85.93;39.42;;;102.80;2150.40;;;;;;6099151;23;20014;-69
2021/01/13 10:29:09;;;;;;;89.15;40.28;;;102.70;2176.00;;;;;;6098445;23;20030;-68
2021/01/13 10:31:35;;;;;;;93.57;42.30;;;102.50;2201.60;;;;;;6098325;23;20399;-67
2021/01/13 10:34:02;;;;;;;105.80;47.40;;;102.50;2201.60;;;;;;6098270;23;19995;-69
2021/01/13 10:36:43;;;;;;;127.28;64.28;;;102.40;2227.20;;;;;;6098375;23;20003;-68
2021/01/13 10:39:16;;;;;;;93.82;43.45;;;77.60;2227.20;;;;;;6097621;23;20006;-67
2021/01/13 10:41:45;;;;;;;128.00;60.17;;;77.40;2227.20;;;;;;6097720;23;20077;-67
2021/01/13 10:44:19;;;;;;;116.30;50.08;;;77.30;2227.20;;;;;;6097217;23;20046;-69
2021/01/13 10:46:51;;;;;;;103.63;50.72;;;77.50;2227.20;;;;;;6098809;23;20005;-69
2021/01/13 10:49:31;;;;;;;104.35;46.53;;;102.40;2227.20;;;;;;6099268;23;19994;-67
2021/01/13 10:52:01;;;;;;;100.15;50.28;;;102.40;2227.20;;;;;;6100389;23;19994;-68
2021/01/13 10:54:30;;;;;;;109.75;51.80;;;102.40;2227.20;;;;;;6100348;23;20347;-67
2021/01/13 10:57:10;;;;;;;116.18;52.15;;;102.70;2201.60;;;;;;6100364;23;20013;-68
2021/01/13 10:59:37;;;;;;;115.65;52.80;;;102.70;2201.60;;;;;;6100413;23;20049;-69
2021/01/13 11:02:04;;;;;;;125.70;60.75;;;102.60;2201.60;;;;;;6100515;23;20351;-67
2021/01/13 11:04:34;;;;;;;110.70;51.15;;;102.60;2227.20;;;;;;6099264;23;20413;-67
2021/01/13 11:07:35;;;;;;;108.25;52.20;;;102.50;2201.60;;;;;;6100622;23;20022;-67
2021/01/13 11:10:03;;;;;;;114.93;51.95;;;77.70;2227.20;;;;;;6099538;23;20422;-68
2021/01/13 11:12:29;;;;;;;105.95;48.13;;;102.40;2227.20;;;;;;6100457;23;19994;-68
2021/01/13 11:14:55;;;;;;;103.35;47.33;;;102.40;2227.20;;;;;;6100063;23;19998;-66
2021/01/13 11:17:24;;;;;;;107.95;46.90;;;77.50;2227.20;;;;;;6099974;23;20090;-68
2021/01/13 11:19:53;;;;;;;91.28;42.25;;;77.40;2227.20;;;;;;6099940;23;20029;-67
2021/01/13 11:22:44;;;;;;;99.60;46.20;;;77.40;2227.20;;;;;;6099431;23;20450;-66
2021/01/13 11:25:30;;;;;;;90.43;41.50;;;77.40;2227.20;;;;;;6099801;23;20021;-68
2021/01/13 11:28:15;;;;;;;105.47;46.28;;;77.10;2227.20;;;;;;6096742;23;20010;-65
2021/01/13 11:30:44;;;;;;;111.72;51.83;;;76.90;2227.20;;;;;;6096053;23;20081;-67
2021/01/13 11:33:11;;;;;;;;;;;77.10;2227.20;;;;;;6098251;23;19995;-66
2021/01/13 11:35:41;;;;;;;114.95;49.10;;;77.30;2227.20;;;;;;6099654;23;19988;-66
2021/01/13 11:38:22;;;;;;;110.03;50.03;;;77.40;2227.20;;;;;;6098368;23;19994;-67
2021/01/13 11:40:57;;;;;;;120.60;53.60;;;77.70;2227.20;;;;;;6100099;23;20026;-67
2021/01/13 11:43:58;;;;;;;106.38;50.78;;;77.50;2227.20;;;;;;6100491;23;19994;-66
2021/01/13 11:46:29;;;;;;;112.47;50.78;;;77.50;2227.20;;;;;;6099664;23;19994;-66
2021/01/13 11:49:25;;;;;;;98.50;46.08;;;77.40;2227.20;;;;;;6098919;23;20010;-66
2021/01/13 11:51:56;;;;;;;85.15;39.55;;;77.70;2227.20;;;;;;6099870;23;20387;-66
2021/01/13 11:54:30;;;;;;;80.68;39.03;;;77.60;2227.20;;;;;;6098807;23;19998;-67
2021/01/13 11:57:15;;;;;;;83.53;38.33;;;77.60;2227.20;;;;;;6098633;23;20006;-66
2021/01/13 11:59:41;;;;;;;79.88;38.45;;;77.70;2227.20;;;;;;6099470;23;19990;-67
2021/01/13 12:02:20;;;;;;;91.32;44.15;;;77.50;2227.20;;;;;;6099211;23;20001;-67
2021/01/13 12:04:46;;;;;;;103.15;45.78;;;77.70;2227.20;;;;;;6099278;23;20002;-67
2021/01/13 12:07:12;;;;;;;90.78;40.33;;;77.50;2227.20;;;;;;6099429;23;20033;-67
2021/01/13 12:09:38;;;;;;;79.75;38.10;;;77.30;2227.20;;;;;;6099099;23;20306;-66
2021/01/13 12:12:05;;;;;;;77.47;37.40;;;77.40;2227.20;;;;;;6099464;23;20106;-67
2021/01/13 12:15:01;;;;;;;86.88;38.15;;;77.50;2227.20;;;;;;6099705;23;19994;-67
2021/01/13 12:17:29;;;;;;;82.93;39.08;;;77.30;2227.20;;;;;;6096207;23;20374;-67
2021/01/13 12:19:54;;;;;;;85.40;38.67;;;77.30;2227.20;;;;;;6099404;23;20367;-67
2021/01/13 12:22:35;;;;;;;86.30;40.30;;;77.00;2227.20;;;;;;6099724;23;19999;-66
2021/01/13 12:25:01;;;;;;;110.57;52.03;;;77.10;2227.20;;;;;;6098958;23;20022;-66
2021/01/13 12:27:27;;;;;;;96.50;42.42;;;77.00;2227.20;;;;;;6099277;23;19998;-67
2021/01/13 12:30:06;;;;;;;101.30;51.92;;;77.00;2227.20;;;;;;6099544;23;19994;-67
2021/01/13 12:32:33;;;;;;;91.25;44.95;;;77.20;2227.20;;;;;;6099898;23;20001;-68
2021/01/13 12:34:59;;;;;;;91.80;40.47;;;77.10;2227.20;;;;;;6099000;23;19995;-67
2021/01/13 12:37:25;;;;;;;105.53;49.53;;;77.10;2227.20;;;;;;6097421;23;20328;-66